Hop Bottom, Pennsylvania
Current Conditions -  °F | °C
As of 3:54 AM on Monday 22 Dec 2014 (Local Time) from KAVP Reporting Station
Overcast Overcast  
Wind Chill: 30°   Ceiling: 1900
Heat Index: 30°   Visibility: 10mi
Dew Point: 22°   Wind: 0mph
Humidity: 72%   Direction: NA
Pressure: 30.28"   Gusts: NA
Location:  41.71°N, 75.77°W
Report Text: KAVP 220854Z AUTO 00000KT 10SM OVC019 M01/M06 A3028 RMK AO2 SLP263 T10111056 50000
Loading
Personal Weather Stations






























Interactive Weather Map New forecast layout! Learn more

10-Day Weather Forecast

Advertisements
Track Severe Weather on mobile